Time;durP1;ratioP1;P1;durP2;ratioP2;P2;SDS_P1;SDS_P2;PMS_P1;PMS_P2;Temp;Humidity;BMP_temperature;BMP_pressure;BME280_temperature;BME280_humidity;BME280_pressure;Samples;Min_cycle;Max_cycle;Signal;HPM_P1;HPM_P2
2024/01/06 00:01:22;;;;;;;;;6.75;6.75;;;;;10.53;72.89;100394.59;5078416;28;45415;-68
2024/01/06 00:04:07;;;;;;;;;;;;;;;;;;;;;
2024/01/06 00:06:52;;;;;;;;;7.25;7.25;;;;;10.29;73.44;100372.34;5064966;28;74186;-68
2024/01/06 00:09:55;;;;;;;;;;;;;;;;;;;;;
2024/01/06 00:12:25;;;;;;;;;7.00;7.00;;;;;9.99;73.37;100340.53;5070238;28;74147;-68
2024/01/06 00:14:59;;;;;;;;;7.50;6.75;;;;;10.34;73.36;100399.75;5079988;28;45314;-68
2024/01/06 00:17:29;;;;;;;;;11.00;9.50;;;;;10.18;73.54;100370.06;5060509;28;45442;-67
2024/01/06 00:20:07;;;;;;;;;;;;;;;;;;;;;
2024/01/06 00:22:52;;;;;;;;;;;;;;;;;;;;;
2024/01/06 00:28:55;;;;;;;;;;;;;;;;;;;;;
2024/01/06 00:31:19;;;;;;;;;10.75;10.50;;;;;10.20;73.52;100375.34;5073705;28;46891;-68
2024/01/06 00:34:04;;;;;;;;;;;;;;;;;;;;;
2024/01/06 00:36:33;;;;;;;;;9.50;8.75;;;;;10.41;73.44;100399.50;5080321;28;68704;-68
2024/01/06 00:39:27;;;;;;;;;8.50;8.00;;;;;10.12;73.64;100364.97;5062713;28;45589;-68
2024/01/06 00:42:07;;;;;;;;;;;;;;;;;;;;;
2024/01/06 00:44:49;;;;;;;;;7.25;6.50;;;;;10.41;73.74;100407.53;5079394;28;72106;-68
2024/01/06 00:47:27;;;;;;;;;;;;;;;;;;;;;
2024/01/06 00:50:02;;;;;;;;;9.00;9.00;;;;;10.10;73.54;100360.59;5073017;28;72358;-68
2024/01/06 00:52:37;;;;;;;;;10.75;8.00;;;;;10.45;73.64;100425.19;5062439;28;46694;-68
2024/01/06 00:55:25;;;;;;;;;;;;;;;;;;;;;
2024/01/06 00:58:13;;;;;;;;;8.00;6.25;;;;;10.36;73.50;100419.25;5061753;28;68592;-68
2024/01/06 01:00:51;;;;;;;;;;;;;;;;;;;;;
2024/01/06 01:03:19;;;;;;;;;15.25;14.50;;;;;10.33;73.72;100416.69;5079734;28;75378;-68
2024/01/06 01:05:46;;;;;;;;;23.00;18.25;;;;;10.00;73.43;100370.72;5061506;28;45438;-68
2024/01/06 01:08:25;;;;;;;;;21.75;20.75;;;;;10.16;73.99;100411.06;5072894;28;45557;-68
2024/01/06 01:11:05;;;;;;;;;;;;;;;;;;;;;
2024/01/06 01:14:19;;;;;;;;;15.75;14.50;;;;;10.23;73.59;100407.25;5078246;28;75087;-68
2024/01/06 01:17:00;;;;;;;;;11.75;11.75;;;;;10.38;73.82;100432.53;5076677;28;45512;-67
2024/01/06 01:19:27;;;;;;;;;10.00;9.50;;;;;10.19;74.17;100400.31;5062330;28;45429;-68
2024/01/06 01:22:17;;;;;;;;;9.25;8.75;;;;;10.07;73.76;100382.06;5080586;28;45684;-68
2024/01/06 01:24:43;;;;;;;;;10.00;10.00;;;;;10.15;73.78;100401.31;5078904;28;46632;-68
2024/01/06 01:27:23;;;;;;;;;5.75;5.75;;;;;10.14;73.75;100397.78;5065390;27;45387;-68
2024/01/06 01:29:57;;;;;;;;;7.00;7.00;;;;;10.01;73.72;100380.50;5079317;28;45477;-68
2024/01/06 01:32:38;;;;;;;;;;;;;;;;;;;;;
2024/01/06 01:35:27;;;;;;;;;7.00;7.00;;;;;10.37;73.85;100442.34;5068567;28;75352;-68
2024/01/06 01:38:04;;;;;;;;;;;;;;;;;;;;;
2024/01/06 01:40:38;;;;;;;;;8.00;7.50;;;;;10.33;73.90;100446.03;5075787;28;70010;-68
2024/01/06 01:43:06;;;;;;;;;8.75;8.00;;;;;10.10;73.55;100414.81;5073801;28;45470;-68
2024/01/06 01:45:34;;;;;;;;;9.00;9.00;;;;;10.30;74.00;100459.44;5074985;28;45669;-68
2024/01/06 01:48:10;;;;;;;;;;;;;;;;;;;;;
2024/01/06 01:50:48;;;;;;;;;;;;;;;;;;;;;
2024/01/06 01:56:22;;;;;;;;;;;;;;;;;;;;;
2024/01/06 01:59:08;;;;;;;;;;;;;;;;;;;;;
2024/01/06 02:01:52;;;;;;;;;;;;;;;;;;;;;
2024/01/06 02:04:37;;;;;;;;;;;;;;;;;;;;;
2024/01/06 02:07:05;;;;;;;;;11.25;10.50;;;;;10.24;73.96;100474.78;5057969;28;75249;-68
2024/01/06 02:09:52;;;;;;;;;;;;;;;;;;;;;
2024/01/06 02:12:22;;;;;;;;;8.25;8.25;;;;;10.03;73.78;100429.28;5078634;28;69023;-68
2024/01/06 02:14:48;;;;;;;;;7.00;6.00;;;;;9.87;74.08;100412.94;5078530;28;45334;-67
2024/01/06 02:17:18;;;;;;;;;9.00;8.75;;;;;10.16;73.68;100467.94;5079889;28;45645;-68
2024/01/06 02:20:11;;;;;;;;;;;;;;;;;;;;;
2024/01/06 02:23:05;;;;;;;;;;;;;;;;;;;;;
2024/01/06 02:25:36;;;;;;;;;7.00;7.00;;;;;10.22;73.96;100480.19;5071374;28;72676;-68
2024/01/06 02:28:14;;;;;;;;;;;;;;;;;;;;;
2024/01/06 02:30:45;;;;;;;;;9.25;9.25;;;;;10.17;73.49;100477.69;5071195;28;72291;-68
2024/01/06 02:33:24;;;;;;;;;8.25;8.00;;;;;9.85;74.12;100433.47;5071476;28;45335;-68
2024/01/06 02:36:28;;;;;;;;;10.75;9.00;;;;;9.99;73.90;100457.88;5070165;28;45490;-68
2024/01/06 02:38:58;;;;;;;;;8.00;7.75;;;;;10.19;74.00;100507.00;5060745;28;46433;-68
2024/01/06 02:41:41;;;;;;;;;;;;;;;;;;;;;
2024/01/06 02:44:17;;;;;;;;;10.75;9.00;;;;;10.06;74.17;100495.00;5066883;28;68928;-68
2024/01/06 02:46:55;;;;;;;;;;;;;;;;;;;;;
2024/01/06 02:49:33;;;;;;;;;;;;;;;;;;;;;
2024/01/06 02:52:13;;;;;;;;;;;;;;;;;;;;;
2024/01/06 02:54:50;;;;;;;;;10.75;8.75;;;;;9.73;74.23;100450.75;5065611;28;68267;-68
2024/01/06 02:57:18;;;;;;;;;8.50;8.00;;;;;9.89;74.14;100477.78;5058842;28;45637;-68
2024/01/06 02:59:43;;;;;;;;;14.50;11.00;;;;;10.05;74.63;100501.25;5079373;28;45450;-68
2024/01/06 03:02:39;;;;;;;;;;;;;;;;;;;;;
2024/01/06 03:05:07;;;;;;;;;14.00;10.75;;;;;9.95;74.96;100496.22;5075672;28;68879;-68
2024/01/06 03:08:06;;;;;;;;;;;;;;;;;;;;;
2024/01/06 03:10:36;;;;;;;;;11.00;9.00;;;;;9.97;74.34;100494.38;5064603;28;73711;-67
2024/01/06 03:13:07;;;;;;;;;9.00;7.50;;;;;9.94;74.24;100496.25;5077331;28;45735;-68
2024/01/06 03:15:51;;;;;;;;;;;;;;;;;;;;;
2024/01/06 03:18:22;;;;;;;;;12.75;10.50;;;;;9.97;74.22;100491.72;5080673;28;72867;-68
2024/01/06 03:20:57;;;;;;;;;10.75;10.75;;;;;10.00;74.22;100501.41;5082520;28;46199;-68
2024/01/06 03:23:25;;;;;;;;;10.25;9.00;;;;;10.01;74.39;100504.00;5064097;28;45579;-67
2024/01/06 03:25:57;;;;;;;;;15.75;10.25;;;;;10.07;74.29;100510.06;5073388;28;45480;-68
2024/01/06 03:28:36;;;;;;;;;;;;;;;;;;;;;
2024/01/06 03:31:06;;;;;;;;;7.75;7.25;;;;;9.97;74.53;100499.72;5074930;28;75833;-67
2024/01/06 03:33:59;;;;;;;;;;;;;;;;;;;;;
2024/01/06 03:36:32;;;;;;;;;9.00;9.00;;;;;10.00;74.52;100501.41;5056999;28;68953;-68
2024/01/06 03:39:07;;;;;;;;;12.00;10.25;;;;;10.10;74.47;100518.81;5061719;28;45421;-68
2024/01/06 03:41:40;;;;;;;;;9.50;9.50;;;;;10.08;74.15;100520.69;5055949;28;45563;-67
2024/01/06 03:44:07;;;;;;;;;12.75;11.50;;;;;10.05;74.49;100511.91;5059059;28;45261;-67
2024/01/06 03:46:44;;;;;;;;;12.50;10.25;;;;;10.08;74.46;100514.47;5047715;28;45351;-68
2024/01/06 03:49:29;;;;;;;;;11.00;9.25;;;;;10.15;74.61;100534.69;5058951;28;46047;-68
2024/01/06 03:52:00;;;;;;;;;9.00;9.00;;;;;9.95;73.96;100508.69;5061475;28;45477;-68
2024/01/06 03:54:28;;;;;;;;;10.25;10.25;;;;;10.16;74.23;100539.09;5040855;28;45321;-68
2024/01/06 03:57:03;;;;;;;;;;;;;;;;;;;;;
2024/01/06 03:59:31;;;;;;;;;11.75;9.50;;;;;9.81;74.50;100485.16;5043240;28;72832;-68
2024/01/06 04:02:04;;;;;;;;;11.75;11.25;;;;;9.92;74.35;100511.44;5058343;28;45567;-68
2024/01/06 04:04:48;;;;;;;;;;;;;;;;;;;;;
2024/01/06 04:07:24;;;;;;;;;13.50;11.00;;;;;9.82;74.26;100498.44;5045681;28;69604;-67
2024/01/06 04:10:20;;;;;;;;;;;;;;;;;;;;;
2024/01/06 04:13:00;;;;;;;;;10.75;10.25;;;;;9.99;74.31;100527.19;5030562;28;76549;-68
2024/01/06 04:15:58;;;;;;;;;;;;;;;;;;;;;
2024/01/06 04:18:33;;;;;;;;;11.00;9.50;;;;;10.04;74.04;100544.81;5060063;28;68740;-68
2024/01/06 04:21:03;;;;;;;;;9.75;8.50;;;;;10.08;74.06;100546.50;5060382;28;45642;-68
2024/01/06 04:23:33;;;;;;;;;15.00;11.75;;;;;9.80;74.20;100496.72;5059585;28;47983;-67
2024/01/06 04:26:06;;;;;;;;;10.75;10.75;;;;;10.15;74.65;100558.69;5057748;28;45847;-67
2024/01/06 04:28:32;;;;;;;;;15.00;15.00;;;;;9.95;74.43;100525.53;5024953;28;45706;-68
2024/01/06 04:30:59;;;;;;;;;13.50;12.00;;;;;10.03;74.26;100533.31;5037133;28;45573;-67
2024/01/06 04:33:25;;;;;;;;;11.50;11.50;;;;;10.27;73.89;100584.06;5049733;28;46949;-67
2024/01/06 04:35:53;;;;;;;;;11.50;10.00;;;;;10.02;74.31;100542.22;5075651;28;45418;-67
2024/01/06 04:38:25;;;;;;;;;14.25;12.00;;;;;9.88;74.39;100523.16;5063258;28;45437;-67
2024/01/06 04:41:00;;;;;;;;;11.50;11.25;;;;;9.96;74.50;100543.28;5061319;28;45655;-68
2024/01/06 04:43:38;;;;;;;;;9.00;9.00;;;;;10.19;74.45;100581.69;5074793;28;45606;-68
2024/01/06 04:46:11;;;;;;;;;11.50;11.00;;;;;10.06;74.27;100559.00;5072008;28;45364;-68
2024/01/06 04:48:48;;;;;;;;;14.25;13.25;;;;;10.04;74.32;100551.06;5058890;28;45470;-67
2024/01/06 04:51:21;;;;;;;;;14.25;12.50;;;;;10.25;74.63;100584.13;5081172;28;45233;-68
2024/01/06 04:53:59;;;;;;;;;14.50;12.25;;;;;10.20;74.31;100586.06;5078998;28;47550;-67
2024/01/06 04:56:37;;;;;;;;;;;;;;;;;;;;;
2024/01/06 04:59:05;;;;;;;;;14.50;13.25;;;;;9.83;74.38;100533.97;5069301;28;68013;-68
2024/01/06 05:01:38;;;;;;;;;10.75;7.75;;;;;9.94;74.47;100560.25;5080767;28;45540;-68
2024/01/06 05:04:11;;;;;;;;;15.50;14.50;;;;;9.94;74.68;100558.47;5077978;28;46194;-67
2024/01/06 05:06:51;;;;;;;;;;;;;;;;;;;;;
2024/01/06 05:09:36;;;;;;;;;13.50;13.50;;;;;10.15;74.62;100593.34;5071140;28;68875;-67
2024/01/06 05:12:15;;;;;;;;;16.75;15.75;;;;;10.18;74.86;100607.47;5079110;28;45711;-68
2024/01/06 05:14:52;;;;;;;;;14.50;13.25;;;;;10.08;75.01;100591.81;5078321;28;46800;-68
2024/01/06 05:17:20;;;;;;;;;13.50;13.50;;;;;10.17;74.90;100610.19;5062480;28;45872;-67
2024/01/06 05:20:00;;;;;;;;;14.25;11.00;;;;;10.10;74.70;100598.84;5076289;28;45431;-68
2024/01/06 05:22:28;;;;;;;;;12.25;11.25;;;;;10.00;74.69;100592.94;5076381;28;45326;-67
2024/01/06 05:24:56;;;;;;;;;13.25;11.50;;;;;10.20;74.72;100624.28;5069677;28;45438;-67
2024/01/06 05:27:23;;;;;;;;;15.00;14.75;;;;;10.08;74.84;100594.50;5060217;28;45488;-67
2024/01/06 05:29:51;;;;;;;;;15.00;12.25;;;;;9.86;74.94;100562.31;5080552;28;45335;-68
2024/01/06 05:32:20;;;;;;;;;15.00;14.00;;;;;9.81;74.76;100551.81;5076292;28;45393;-68
2024/01/06 05:34:45;;;;;;;;;17.00;12.50;;;;;10.00;74.92;100581.41;5067880;28;45437;-67
2024/01/06 05:37:21;;;;;;;;;;;;;;;;;;;;;
2024/01/06 05:40:01;;;;;;;;;15.00;14.00;;;;;9.85;74.77;100556.09;5078900;28;68956;-68
2024/01/06 05:42:28;;;;;;;;;12.50;11.50;;;;;10.20;74.65;100615.41;5073103;28;45356;-68
2024/01/06 05:44:58;;;;;;;;;15.75;11.75;;;;;9.99;74.62;100575.19;5071479;28;45854;-67
2024/01/06 05:47:34;;;;;;;;;;;;;;;;;;;;;
2024/01/06 05:50:10;;;;;;;;;17.25;12.00;;;;;10.22;74.66;100623.38;5079518;28;68885;-68
2024/01/06 05:52:48;;;;;;;;;;;;;;;;;;;;;
2024/01/06 05:55:31;;;;;;;;;;;;;;;;;;;;;
2024/01/06 05:57:59;;;;;;;;;13.00;13.00;;;;;9.82;74.09;100573.09;5063987;28;74035;-68
2024/01/06 06:00:35;;;;;;;;;12.75;12.00;;;;;9.98;74.06;100604.59;5041947;28;45450;-67
2024/01/06 06:03:08;;;;;;;;;13.25;11.75;;;;;9.79;74.19;100590.97;5059782;28;45365;-68
2024/01/06 06:05:44;;;;;;;;;11.00;10.25;;;;;10.01;74.03;100640.00;5067513;28;46237;-68
2024/01/06 06:08:28;;;;;;;;;;;;;;;;;;;;;
2024/01/06 06:11:10;;;;;;;;;11.00;9.25;;;;;9.61;74.06;100595.94;5069580;28;68312;-68
2024/01/06 06:13:39;;;;;;;;;11.25;7.75;;;;;9.93;73.92;100652.72;5061106;28;45560;-68
2024/01/06 06:16:17;;;;;;;;;14.00;10.75;;;;;9.58;74.41;100597.84;5032683;28;47007;-68
2024/01/06 06:18:57;;;;;;;;;10.50;10.50;;;;;9.76;73.91;100645.25;5064196;28;45625;-67
2024/01/06 06:21:33;;;;;;;;;8.00;8.00;;;;;9.75;73.78;100651.47;5060660;28;45563;-67
2024/01/06 06:24:01;;;;;;;;;6.75;6.50;;;;;9.76;74.07;100669.22;5044166;28;45434;-68
2024/01/06 06:26:37;;;;;;;;;14.00;8.25;;;;;9.62;74.07;100647.44;5050739;28;46774;-68
2024/01/06 06:29:32;;;;;;;;;;;;;;;;;;;;;
2024/01/06 06:32:01;;;;;;;;;13.50;9.00;;;;;9.71;73.80;100672.97;5072127;28;68828;-68
2024/01/06 06:34:31;;;;;;;;;8.25;7.50;;;;;9.53;73.67;100648.59;5060798;28;45336;-67
2024/01/06 06:37:03;;;;;;;;;7.25;7.25;;;;;9.51;73.47;100642.44;5070579;28;47038;-67
2024/01/06 06:39:42;;;;;;;;;;;;;;;;;;;;;
2024/01/06 06:42:32;;;;;;;;;4.00;4.00;;;;;9.60;73.56;100675.94;5072762;28;67878;-67
2024/01/06 06:45:25;;;;;;;;;;;;;;;;;;;;;
2024/01/06 06:48:01;;;;;;;;;8.25;7.50;;;;;9.49;73.80;100659.38;5057797;28;74841;-68
2024/01/06 06:50:44;;;;;;;;;;;;;;;;;;;;;
2024/01/06 06:53:12;;;;;;;;;5.50;4.00;;;;;9.65;74.05;100698.00;5076707;28;67406;-68
2024/01/06 06:55:45;;;;;;;;;5.00;4.00;;;;;9.72;73.75;100717.34;5065944;28;45648;-68
2024/01/06 06:58:41;;;;;;;;;;;;;;;;;;;;;
2024/01/06 07:01:19;;;;;;;;;;;;;;;;;;;;;
2024/01/06 07:03:54;;;;;;;;;7.00;4.00;;;;;9.67;73.96;100724.59;5076829;28;69239;-68
2024/01/06 07:06:24;;;;;;;;;8.25;7.00;;;;;9.63;74.07;100715.81;5058887;28;46963;-68
2024/01/06 07:08:50;;;;;;;;;6.50;6.50;;;;;9.71;73.76;100728.94;5058418;28;48363;-68
2024/01/06 07:11:23;;;;;;;;;6.25;4.75;;;;;9.76;73.83;100730.53;5060377;28;45546;-67
2024/01/06 07:13:58;;;;;;;;;7.50;6.50;;;;;9.58;73.79;100717.75;5075290;28;45215;-68
2024/01/06 07:16:42;;;;;;;;;;;;;;;;;;;;;
2024/01/06 07:19:18;;;;;;;;;7.25;5.25;;;;;9.60;73.68;100735.44;5075267;28;76619;-68
2024/01/06 07:21:45;;;;;;;;;7.50;6.50;;;;;9.44;73.66;100710.16;5049206;28;45635;-68
2024/01/06 07:24:20;;;;;;;;;7.75;6.25;;;;;9.57;73.92;100734.66;5068364;28;45377;-68
2024/01/06 07:26:58;;;;;;;;;;;;;;;;;;;;;
2024/01/06 07:29:46;;;;;;;;;6.75;4.00;;;;;9.46;73.56;100719.84;5077711;28;75476;-67
2024/01/06 07:32:22;;;;;;;;;;;;;;;;;;;;;
2024/01/06 07:34:56;;;;;;;;;5.50;4.75;;;;;9.67;73.50;100768.13;5059390;28;67940;-67
2024/01/06 07:37:31;;;;;;;;;6.25;4.00;;;;;9.56;73.63;100741.78;5073203;28;45390;-68
2024/01/06 07:40:11;;;;;;;;;;;;;;;;;;;;;
2024/01/06 07:42:39;;;;;;;;;4.50;3.25;;;;;9.72;73.25;100786.66;5072015;28;71301;-67
2024/01/06 07:45:05;;;;;;;;;0.50;0.00;;;;;9.54;73.13;100756.94;5071723;28;45711;-74
2024/01/06 07:47:31;;;;;;;;;6.00;4.75;;;;;9.72;73.03;100794.66;5071493;28;45482;-75
2024/01/06 07:49:57;;;;;;;;;4.25;4.25;;;;;9.59;73.39;100773.69;5072147;28;46083;-71
2024/01/06 07:52:22;;;;;;;;;9.75;7.00;;;;;9.58;73.42;100776.38;5058936;28;45871;-71
2024/01/06 07:54:48;;;;;;;;;5.50;3.75;;;;;9.56;73.71;100772.91;5077402;28;45642;-71
2024/01/06 07:57:14;;;;;;;;;9.00;4.50;;;;;9.49;73.12;100765.97;5076731;28;45900;-70
2024/01/06 07:59:50;;;;;;;;;3.75;3.00;;;;;9.71;73.14;100804.44;5075330;28;45468;-67
2024/01/06 08:02:51;;;;;;;;;;;;;;;;;;;;;
2024/01/06 08:05:29;;;;;;;;;;;;;;;;;;;;;
2024/01/06 08:08:10;;;;;;;;;;;;;;;;;;;;;
2024/01/06 08:10:56;;;;;;;;;4.00;4.00;;;;;9.60;73.27;100819.84;5070304;28;76247;-68
2024/01/06 08:13:26;;;;;;;;;5.25;4.00;;;;;9.22;73.05;100753.38;5059525;28;45896;-68
2024/01/06 08:16:03;;;;;;;;;4.00;4.00;;;;;9.44;73.48;100796.28;5081901;28;45564;-67
2024/01/06 08:18:39;;;;;;;;;5.25;5.25;;;;;9.60;73.39;100825.19;5060952;28;45641;-67
2024/01/06 08:21:14;;;;;;;;;;;;;;;;;;;;;
2024/01/06 08:23:52;;;;;;;;;;;;;;;;;;;;;
2024/01/06 08:26:26;;;;;;;;;6.75;4.00;;;;;9.33;73.00;100795.69;5080051;28;69082;-67
2024/01/06 08:29:22;;;;;;;;;;;;;;;;;;;;;
2024/01/06 08:31:55;;;;;;;;;4.75;4.00;;;;;9.53;72.69;100839.59;5078990;28;75844;-68
2024/01/06 08:34:35;;;;;;;;;;;;;;;;;;;;;
2024/01/06 08:37:13;;;;;;;;;;;;;;;;;;;;;
2024/01/06 08:39:39;;;;;;;;;5.00;5.00;;;;;9.53;72.22;100835.13;5073831;27;71396;-67
2024/01/06 08:42:08;;;;;;;;;6.25;4.00;;;;;9.27;71.95;100807.38;5071269;28;46259;-68
2024/01/06 08:44:43;;;;;;;;;;;;;;;;;;;;;
2024/01/06 08:47:28;;;;;;;;;;;;;;;;;;;;;
2024/01/06 08:50:07;;;;;;;;;;;;;;;;;;;;;
2024/01/06 08:52:35;;;;;;;;;5.25;5.25;;;;;9.67;71.97;100876.53;5080852;27;73895;-67
2024/01/06 08:55:01;;;;;;;;;7.75;7.75;;;;;9.36;72.46;100818.72;5072575;28;45449;-67
2024/01/06 08:57:26;;;;;;;;;10.50;7.50;;;;;9.60;72.25;100852.69;5057913;28;45802;-67
2024/01/06 08:59:51;;;;;;;;;5.25;4.00;;;;;9.38;72.05;100828.41;5064258;28;45418;-66
2024/01/06 09:02:17;;;;;;;;;5.25;5.25;;;;;9.45;71.75;100834.44;5053592;28;48161;-66
2024/01/06 09:04:42;;;;;;;;;4.75;4.75;;;;;9.48;71.82;100839.72;5059420;28;45745;-67
2024/01/06 09:07:17;;;;;;;;;8.25;7.25;;;;;9.59;72.06;100863.44;5077960;28;45899;-67
2024/01/06 09:09:45;;;;;;;;;4.00;4.00;;;;;9.44;72.06;100846.03;5076360;28;45502;-67
2024/01/06 09:12:21;;;;;;;;;;;;;;;;;;;;;
2024/01/06 09:14:49;;;;;;;;;5.25;4.00;;;;;9.38;71.70;100824.88;5076885;28;72916;-67
2024/01/06 09:17:17;;;;;;;;;7.00;5.25;;;;;9.63;71.39;100875.75;5078236;28;45405;-68
2024/01/06 09:19:43;;;;;;;;;3.00;3.00;;;;;9.68;71.86;100879.16;5077565;28;45763;-65
2024/01/06 09:22:13;;;;;;;;;2.75;2.75;;;;;9.69;71.49;100886.25;5059401;28;48448;-67
2024/01/06 09:24:38;;;;;;;;;4.50;4.00;;;;;9.56;71.37;100858.16;5078822;28;45825;-67
2024/01/06 09:27:07;;;;;;;;;3.50;3.00;;;;;9.34;71.39;100823.19;5059949;28;45683;-67
2024/01/06 09:29:32;;;;;;;;;4.75;3.00;;;;;9.58;71.30;100861.66;5078934;28;45469;-67
2024/01/06 09:31:58;;;;;;;;;3.00;3.00;;;;;9.71;70.81;100892.41;5053843;28;46749;-67
2024/01/06 09:34:23;;;;;;;;;3.50;3.50;;;;;9.79;71.13;100906.41;5077971;28;45424;-67
2024/01/06 09:36:51;;;;;;;;;4.50;2.00;;;;;9.60;71.01;100865.16;5078410;28;45511;-67
2024/01/06 09:39:17;;;;;;;;;2.25;2.25;;;;;9.57;70.60;100870.56;5065397;28;45433;-67
2024/01/06 09:41:43;;;;;;;;;2.75;2.75;;;;;9.60;70.75;100876.69;5059723;28;47018;-67
2024/01/06 09:44:10;;;;;;;;;3.50;2.00;;;;;9.73;70.41;100901.22;5080473;27;46373;-67
2024/01/06 09:46:43;;;;;;;;;3.00;2.00;;;;;9.41;70.33;100849.66;5074995;27;45478;-67
2024/01/06 09:49:14;;;;;;;;;2.75;2.75;;;;;9.54;70.12;100887.53;5073350;28;45336;-67
2024/01/06 09:51:50;;;;;;;;;3.00;2.00;;;;;9.57;70.40;100883.88;5076598;27;47527;-67
2024/01/06 09:54:28;;;;;;;;;2.75;2.00;;;;;9.65;69.81;100897.88;5076727;27;45379;-67
2024/01/06 09:56:55;;;;;;;;;5.25;4.00;;;;;9.50;70.49;100880.50;5073311;27;45600;-67
2024/01/06 09:59:21;;;;;;;;;5.00;4.00;;;;;9.50;70.02;100883.16;5079822;27;45681;-67
2024/01/06 10:02:00;;;;;;;;;;;;;;;;;;;;;
2024/01/06 10:04:27;;;;;;;;;1.25;1.25;;;;;9.45;70.31;100875.31;5065916;27;71301;-67
2024/01/06 10:07:00;;;;;;;;;3.00;3.00;;;;;9.87;69.93;100931.97;5077816;28;45408;-67
2024/01/06 10:09:29;;;;;;;;;5.25;3.25;;;;;9.68;69.86;100896.94;5077441;28;45347;-67
2024/01/06 10:11:57;;;;;;;;;2.25;2.25;;;;;9.62;69.83;100885.53;5049263;28;47066;-67
2024/01/06 10:14:24;;;;;;;;;1.25;1.25;;;;;9.73;70.06;100903.03;5066826;28;45757;-67
2024/01/06 10:16:51;;;;;;;;;4.00;3.00;;;;;9.86;69.65;100930.25;5077739;28;45433;-67
2024/01/06 10:19:16;;;;;;;;;1.00;1.00;;;;;9.70;69.96;100903.09;5060303;28;45691;-67
2024/01/06 10:21:44;;;;;;;;;4.25;2.25;;;;;9.90;69.80;100940.78;5053193;28;47395;-67
2024/01/06 10:24:10;;;;;;;;;2.75;2.75;;;;;9.69;69.26;100906.69;5078219;27;45451;-67
2024/01/06 10:26:38;;;;;;;;;1.25;1.25;;;;;9.59;69.27;100898.94;5076793;27;45541;-67
2024/01/06 10:29:04;;;;;;;;;1.25;1.25;;;;;9.55;69.27;100896.38;5059995;28;45393;-67
2024/01/06 10:31:30;;;;;;;;;2.75;2.75;;;;;9.78;69.25;100949.97;5075387;27;46116;-67
2024/01/06 10:33:56;;;;;;;;;4.25;4.25;;;;;9.56;69.71;100907.00;5079914;27;45379;-67
2024/01/06 10:36:35;;;;;;;;;3.50;2.25;;;;;9.69;69.97;100920.91;5056169;28;45371;-67
2024/01/06 10:39:07;;;;;;;;;3.00;3.00;;;;;9.77;70.08;100934.91;5065990;27;45410;-67
2024/01/06 10:41:38;;;;;;;;;3.00;3.00;;;;;9.60;69.95;100899.81;5076037;27;46602;-68
2024/01/06 10:44:06;;;;;;;;;3.25;1.00;;;;;9.66;70.10;100902.31;5061329;27;45940;-67
2024/01/06 10:46:39;;;;;;;;;3.25;1.25;;;;;9.95;69.51;100941.53;5047803;28;46531;-67
2024/01/06 10:49:08;;;;;;;;;1.75;1.75;;;;;9.72;69.77;100907.50;5077160;27;45669;-67
2024/01/06 10:51:41;;;;;;;;;2.50;2.00;;;;;9.78;69.29;100915.31;5079718;27;45778;-67
2024/01/06 10:54:11;;;;;;;;;4.00;2.25;;;;;9.87;69.26;100943.50;5068537;27;45453;-67
2024/01/06 10:56:46;;;;;;;;;2.75;1.75;;;;;9.54;69.19;100882.19;5076924;27;45799;-67
2024/01/06 10:59:12;;;;;;;;;1.25;1.25;;;;;9.72;69.41;100914.59;5077357;27;45754;-66
2024/01/06 11:01:38;;;;;;;;;3.00;3.00;;;;;9.43;69.48;100868.25;5078889;27;45560;-66
2024/01/06 11:04:04;;;;;;;;;2.25;2.00;;;;;9.76;69.81;100927.81;5067967;28;45375;-67
2024/01/06 11:06:32;;;;;;;;;1.50;1.50;;;;;9.58;69.12;100883.84;5054710;28;45534;-67
2024/01/06 11:09:24;;;;;;;;;2.00;1.00;;;;;9.93;68.59;100939.84;5074915;28;45418;-66
2024/01/06 11:11:51;;;;;;;;;0.25;0.25;;;;;9.92;68.88;100938.97;5074533;28;46221;-66
2024/01/06 11:14:24;;;;;;;;;13.75;11.00;;;;;9.82;68.93;100921.44;5059197;28;45901;-65
2024/01/06 11:16:51;;;;;;;;;3.75;3.75;;;;;9.90;69.11;100938.09;5075849;28;45714;-65
2024/01/06 11:19:35;;;;;;;;;2.00;2.00;;;;;9.94;69.14;100941.56;5067163;28;45376;-65
2024/01/06 11:22:34;;;;;;;;;1.25;1.25;;;;;9.91;68.88;100939.00;5076814;28;45271;-66
2024/01/06 11:25:07;;;;;;;;;2.00;2.00;;;;;9.81;69.37;100922.38;5076341;28;45759;-66
2024/01/06 11:27:33;;;;;;;;;2.00;2.00;;;;;9.82;69.32;100917.00;5077104;28;45786;-66
2024/01/06 11:31:09;;;;;;;;;4.50;2.00;;;;;9.94;68.92;100929.13;5057549;28;45418;-66
2024/01/06 11:36:47;;;;;;;;;1.50;1.00;;;;;9.82;69.53;100906.34;5318398;22;45513;-79
2024/01/06 11:39:40;;;;;;;;;3.00;1.75;;;;;10.00;69.23;100938.75;5063171;28;45412;-80
2024/01/06 11:42:06;;;;;;;;;1.00;1.00;;;;;9.79;69.81;100893.09;5060740;28;46727;-80
2024/01/06 11:44:37;;;;;;;;;1.25;1.25;;;;;9.80;69.99;100883.28;5048203;28;46063;-80
2024/01/06 11:47:04;;;;;;;;;3.75;3.75;;;;;9.97;69.81;100922.81;5035932;28;45653;-79
2024/01/06 11:49:30;;;;;;;;;3.00;2.00;;;;;9.98;69.83;100924.59;5038856;28;45414;-80
2024/01/06 11:51:58;;;;;;;;;2.00;1.50;;;;;9.86;69.72;100898.25;5042479;28;45348;-79
2024/01/06 11:54:24;;;;;;;;;1.00;1.00;;;;;9.81;69.29;100904.56;5036745;28;48278;-80
2024/01/06 11:56:49;;;;;;;;;0.00;0.00;;;;;9.89;69.24;100911.47;5048263;28;45342;-80
2024/01/06 11:59:15;;;;;;;;;1.00;1.00;;;;;9.93;69.72;100914.03;5047358;28;45276;-80
2024/01/06 12:01:40;;;;;;;;;1.00;1.00;;;;;9.93;69.87;100908.69;5031509;28;45306;-80
2024/01/06 12:04:06;;;;;;;;;2.50;2.00;;;;;9.78;69.84;100874.47;5038544;28;46815;-80
2024/01/06 12:06:35;;;;;;;;;5.00;2.00;;;;;9.79;69.44;100876.22;5041418;28;45358;-80
2024/01/06 12:09:07;;;;;;;;;3.75;3.00;;;;;9.77;69.10;100873.59;5037451;28;45400;-80
2024/01/06 12:11:32;;;;;;;;;2.00;2.00;;;;;9.83;69.11;100878.75;5029332;28;45495;-80
2024/01/06 12:13:57;;;;;;;;;3.25;2.25;;;;;9.77;69.17;100868.25;5034470;28;45612;-80
2024/01/06 12:16:27;;;;;;;;;3.75;2.00;;;;;9.89;69.08;100871.50;5035242;28;45458;-80
2024/01/06 12:18:57;;;;;;;;;2.25;1.75;;;;;10.08;68.48;100898.53;5019580;28;45374;-80
2024/01/06 12:21:23;;;;;;;;;1.00;1.00;;;;;10.07;68.17;100904.78;5036552;28;45342;-80
2024/01/06 12:23:48;;;;;;;;;2.00;2.00;;;;;10.05;68.93;100894.16;5040023;28;45427;-80
2024/01/06 12:26:14;;;;;;;;;2.75;2.75;;;;;9.95;68.45;100874.84;5039728;28;45725;-80
2024/01/06 12:28:39;;;;;;;;;1.00;1.00;;;;;9.85;68.53;100854.69;5040232;28;45622;-80
2024/01/06 12:31:08;;;;;;;;;1.00;1.00;;;;;9.91;68.71;100859.88;5033354;28;45349;-80
2024/01/06 12:33:36;;;;;;;;;1.00;1.00;;;;;10.07;68.77;100881.63;5031493;28;45653;-80
2024/01/06 12:36:03;;;;;;;;;1.25;1.25;;;;;10.02;68.29;100873.78;5035403;28;45663;-80
2024/01/06 12:38:29;;;;;;;;;1.75;1.75;;;;;10.07;68.11;100894.97;5033333;28;45308;-80
2024/01/06 12:40:55;;;;;;;;;1.00;1.00;;;;;9.95;68.07;100871.31;5034291;28;45419;-80
2024/01/06 12:43:21;;;;;;;;;1.00;1.00;;;;;10.02;67.76;100881.78;5031260;28;45589;-80
2024/01/06 12:45:46;;;;;;;;;1.25;1.00;;;;;10.13;67.57;100899.28;5032025;28;51894;-80
2024/01/06 12:48:11;;;;;;;;;1.00;1.00;;;;;9.73;67.73;100831.06;5034254;28;45775;-80
2024/01/06 12:50:37;;;;;;;;;0.00;0.00;;;;;9.70;67.71;100826.66;5040523;28;46105;-80
2024/01/06 12:53:02;;;;;;;;;1.75;1.75;;;;;10.05;67.78;100878.16;5036712;28;46205;-80
2024/01/06 12:55:28;;;;;;;;;2.25;2.00;;;;;10.09;68.18;100886.94;5032849;28;45525;-80
2024/01/06 12:57:53;;;;;;;;;2.50;1.00;;;;;10.05;68.16;100883.47;5044534;28;45525;-80
2024/01/06 13:00:19;;;;;;;;;1.50;1.00;;;;;10.03;67.89;100874.66;5037305;28;45442;-80
2024/01/06 13:02:44;;;;;;;;;1.50;1.50;;;;;10.15;67.59;100895.63;5026256;28;47153;-80
2024/01/06 13:05:10;;;;;;;;;1.00;1.00;;;;;10.01;67.53;100877.38;5036659;28;45427;-80
2024/01/06 13:07:36;;;;;;;;;1.00;1.00;;;;;10.13;67.86;100907.28;5036829;28;45480;-80
2024/01/06 13:10:01;;;;;;;;;2.25;2.00;;;;;10.12;68.19;100893.09;5027734;28;45831;-80
2024/01/06 13:12:28;;;;;;;;;1.50;1.50;;;;;10.02;68.53;100873.78;5030392;28;45653;-80
2024/01/06 13:14:54;;;;;;;;;3.00;3.00;;;;;10.07;68.44;100875.44;5039335;28;45469;-80
2024/01/06 13:17:19;;;;;;;;;2.00;2.00;;;;;10.18;67.99;100900.91;5033550;28;45390;-80
2024/01/06 13:19:45;;;;;;;;;3.00;3.00;;;;;10.04;68.64;100855.09;5033349;28;45329;-80
2024/01/06 13:22:10;;;;;;;;;1.00;1.00;;;;;10.05;68.63;100861.28;5031394;28;45795;-80
2024/01/06 13:24:35;;;;;;;;;4.00;2.50;;;;;10.19;68.70;100891.97;5024673;28;45984;-80
2024/01/06 13:27:02;;;;;;;;;4.50;2.00;;;;;10.26;68.84;100895.34;5029669;28;45473;-80
2024/01/06 13:29:28;;;;;;;;;3.50;3.00;;;;;10.30;68.65;100905.00;5039398;28;45432;-80
2024/01/06 13:31:54;;;;;;;;;2.00;2.00;;;;;10.14;68.29;100885.00;5038715;28;45514;-80
2024/01/06 13:34:19;;;;;;;;;1.00;1.00;;;;;10.24;68.34;100902.53;5038723;28;45279;-80